sensor_id;sensor_type;location;lat;lon;timestamp;temperature;humidity
23100;DHT22;53791;50.696;4.396;2023-08-21T00:00:30;21.20;99.90
23100;DHT22;53791;50.696;4.396;2023-08-21T00:02:58;21.10;99.90
23100;DHT22;53791;50.696;4.396;2023-08-21T00:05:25;21.10;99.90
23100;DHT22;53791;50.696;4.396;2023-08-21T00:07:53;21.10;99.90
23100;DHT22;53791;50.696;4.396;2023-08-21T00:10:20;21.20;99.90
23100;DHT22;53791;50.696;4.396;2023-08-21T00:12:48;21.30;99.90
23100;DHT22;53791;50.696;4.396;2023-08-21T00:15:15;21.20;99.90
23100;DHT22;53791;50.696;4.396;2023-08-21T00:17:43;21.10;99.90
23100;DHT22;53791;50.696;4.396;2023-08-21T00:20:11;21.00;99.90
23100;DHT22;53791;50.696;4.396;2023-08-21T00:22:38;20.90;99.90
23100;DHT22;53791;50.696;4.396;2023-08-21T00:25:06;20.90;99.90
23100;DHT22;53791;50.696;4.396;2023-08-21T00:27:34;20.90;99.90
23100;DHT22;53791;50.696;4.396;2023-08-21T00:30:01;21.00;99.90
23100;DHT22;53791;50.696;4.396;2023-08-21T00:32:29;21.10;99.90
23100;DHT22;53791;50.696;4.396;2023-08-21T00:34:56;21.00;99.90
23100;DHT22;53791;50.696;4.396;2023-08-21T00:37:24;21.00;99.90
23100;DHT22;53791;50.696;4.396;2023-08-21T00:39:51;21.00;99.90
23100;DHT22;53791;50.696;4.396;2023-08-21T00:42:19;21.00;99.90
23100;DHT22;53791;50.696;4.396;2023-08-21T00:44:46;20.90;99.90
23100;DHT22;53791;50.696;4.396;2023-08-21T00:47:14;20.90;99.90
23100;DHT22;53791;50.696;4.396;2023-08-21T00:49:42;21.00;99.90
23100;DHT22;53791;50.696;4.396;2023-08-21T00:52:12;20.90;99.90
23100;DHT22;53791;50.696;4.396;2023-08-21T00:54:40;20.80;99.90
23100;DHT22;53791;50.696;4.396;2023-08-21T00:57:09;20.70;99.90
23100;DHT22;53791;50.696;4.396;2023-08-21T00:59:38;20.80;99.90
23100;DHT22;53791;50.696;4.396;2023-08-21T01:02:05;20.80;99.90
23100;DHT22;53791;50.696;4.396;2023-08-21T01:04:33;20.90;99.90
23100;DHT22;53791;50.696;4.396;2023-08-21T01:07:00;20.90;99.90
23100;DHT22;53791;50.696;4.396;2023-08-21T01:09:49;20.80;99.90
23100;DHT22;53791;50.696;4.396;2023-08-21T01:12:23;20.60;99.90
23100;DHT22;53791;50.696;4.396;2023-08-21T01:14:59;20.60;99.90
23100;DHT22;53791;50.696;4.396;2023-08-21T01:17:29;20.60;99.90
23100;DHT22;53791;50.696;4.396;2023-08-21T01:19:56;20.60;99.90
23100;DHT22;53791;50.696;4.396;2023-08-21T01:22:34;20.60;99.90
23100;DHT22;53791;50.696;4.396;2023-08-21T01:24:57;20.50;99.90
23100;DHT22;53791;50.696;4.396;2023-08-21T01:27:24;20.50;99.90
23100;DHT22;53791;50.696;4.396;2023-08-21T01:29:52;20.50;99.90
23100;DHT22;53791;50.696;4.396;2023-08-21T01:35:15;20.30;99.90
23100;DHT22;53791;50.696;4.396;2023-08-21T01:37:43;20.30;99.90
23100;DHT22;53791;50.696;4.396;2023-08-21T01:40:11;20.20;99.90
23100;DHT22;53791;50.696;4.396;2023-08-21T01:42:38;20.20;99.90
23100;DHT22;53791;50.696;4.396;2023-08-21T01:45:07;20.20;99.90
23100;DHT22;53791;50.696;4.396;2023-08-21T01:47:39;20.20;99.90
23100;DHT22;53791;50.696;4.396;2023-08-21T01:50:04;20.10;99.90
23100;DHT22;53791;50.696;4.396;2023-08-21T01:52:32;19.90;99.90
23100;DHT22;53791;50.696;4.396;2023-08-21T01:54:59;19.80;99.90
23100;DHT22;53791;50.696;4.396;2023-08-21T01:57:27;19.80;99.90
23100;DHT22;53791;50.696;4.396;2023-08-21T01:59:54;19.90;99.90
23100;DHT22;53791;50.696;4.396;2023-08-21T02:02:22;19.90;99.90
23100;DHT22;53791;50.696;4.396;2023-08-21T02:04:49;19.90;99.90
23100;DHT22;53791;50.696;4.396;2023-08-21T02:07:19;19.90;99.90
23100;DHT22;53791;50.696;4.396;2023-08-21T02:09:46;19.90;99.90
23100;DHT22;53791;50.696;4.396;2023-08-21T02:12:14;19.80;99.90
23100;DHT22;53791;50.696;4.396;2023-08-21T02:14:41;19.70;99.90
23100;DHT22;53791;50.696;4.396;2023-08-21T02:17:09;19.70;99.90
23100;DHT22;53791;50.696;4.396;2023-08-21T02:19:36;19.60;99.90
23100;DHT22;53791;50.696;4.396;2023-08-21T02:22:04;19.60;99.90
23100;DHT22;53791;50.696;4.396;2023-08-21T02:24:31;19.40;99.90
23100;DHT22;53791;50.696;4.396;2023-08-21T02:27:04;19.30;99.90
23100;DHT22;53791;50.696;4.396;2023-08-21T02:29:29;19.30;99.90
23100;DHT22;53791;50.696;4.396;2023-08-21T02:31:57;19.30;99.90
23100;DHT22;53791;50.696;4.396;2023-08-21T02:34:25;19.20;99.90
23100;DHT22;53791;50.696;4.396;2023-08-21T02:36:53;19.10;99.90
23100;DHT22;53791;50.696;4.396;2023-08-21T02:39:20;19.20;99.90
23100;DHT22;53791;50.696;4.396;2023-08-21T02:41:48;19.30;99.90
23100;DHT22;53791;50.696;4.396;2023-08-21T02:44:15;19.20;99.90
23100;DHT22;53791;50.696;4.396;2023-08-21T02:46:43;19.10;99.90
23100;DHT22;53791;50.696;4.396;2023-08-21T02:49:10;19.10;99.90
23100;DHT22;53791;50.696;4.396;2023-08-21T02:51:38;19.00;99.90
23100;DHT22;53791;50.696;4.396;2023-08-21T02:54:05;19.20;99.90
23100;DHT22;53791;50.696;4.396;2023-08-21T02:56:33;19.10;99.90
23100;DHT22;53791;50.696;4.396;2023-08-21T02:59:01;19.00;99.90
23100;DHT22;53791;50.696;4.396;2023-08-21T03:01:28;19.10;99.90
23100;DHT22;53791;50.696;4.396;2023-08-21T03:03:56;19.00;99.90
23100;DHT22;53791;50.696;4.396;2023-08-21T03:06:23;18.90;99.90
23100;DHT22;53791;50.696;4.396;2023-08-21T03:08:51;18.90;99.90
23100;DHT22;53791;50.696;4.396;2023-08-21T03:11:18;18.90;99.90
23100;DHT22;53791;50.696;4.396;2023-08-21T03:13:46;18.70;99.90
23100;DHT22;53791;50.696;4.396;2023-08-21T03:16:13;18.80;99.90
23100;DHT22;53791;50.696;4.396;2023-08-21T03:19:00;18.90;99.90
23100;DHT22;53791;50.696;4.396;2023-08-21T03:21:28;18.90;99.90
23100;DHT22;53791;50.696;4.396;2023-08-21T03:23:57;18.90;99.90
23100;DHT22;53791;50.696;4.396;2023-08-21T03:26:25;18.90;99.90
23100;DHT22;53791;50.696;4.396;2023-08-21T03:28:53;19.00;99.90
23100;DHT22;53791;50.696;4.396;2023-08-21T03:31:20;19.00;99.90
23100;DHT22;53791;50.696;4.396;2023-08-21T03:33:48;18.90;99.90
23100;DHT22;53791;50.696;4.396;2023-08-21T03:36:15;18.90;99.90
23100;DHT22;53791;50.696;4.396;2023-08-21T03:38:43;18.90;99.90
23100;DHT22;53791;50.696;4.396;2023-08-21T03:41:11;18.90;99.90
23100;DHT22;53791;50.696;4.396;2023-08-21T03:43:39;19.10;99.90
23100;DHT22;53791;50.696;4.396;2023-08-21T03:46:06;18.90;99.90
23100;DHT22;53791;50.696;4.396;2023-08-21T03:48:35;18.90;99.90
23100;DHT22;53791;50.696;4.396;2023-08-21T03:51:03;18.90;99.90
23100;DHT22;53791;50.696;4.396;2023-08-21T03:53:30;18.80;99.90
23100;DHT22;53791;50.696;4.396;2023-08-21T03:55:58;18.80;99.90
23100;DHT22;53791;50.696;4.396;2023-08-21T03:58:26;18.90;99.90
23100;DHT22;53791;50.696;4.396;2023-08-21T04:00:54;18.90;99.90
23100;DHT22;53791;50.696;4.396;2023-08-21T04:03:22;18.80;99.90
23100;DHT22;53791;50.696;4.396;2023-08-21T04:05:49;18.80;99.90
23100;DHT22;53791;50.696;4.396;2023-08-21T04:08:17;18.80;99.90
23100;DHT22;53791;50.696;4.396;2023-08-21T04:10:44;18.70;99.90
23100;DHT22;53791;50.696;4.396;2023-08-21T04:13:12;18.70;99.90
23100;DHT22;53791;50.696;4.396;2023-08-21T04:15:44;18.80;99.90
23100;DHT22;53791;50.696;4.396;2023-08-21T04:18:08;18.80;99.90
23100;DHT22;53791;50.696;4.396;2023-08-21T04:20:36;18.70;99.90
23100;DHT22;53791;50.696;4.396;2023-08-21T04:23:04;18.60;99.90
23100;DHT22;53791;50.696;4.396;2023-08-21T04:25:31;18.50;99.90
23100;DHT22;53791;50.696;4.396;2023-08-21T04:27:59;18.40;99.90
23100;DHT22;53791;50.696;4.396;2023-08-21T04:30:29;18.40;99.90
23100;DHT22;53791;50.696;4.396;2023-08-21T04:32:58;18.40;99.90
23100;DHT22;53791;50.696;4.396;2023-08-21T04:35:25;18.30;99.90
23100;DHT22;53791;50.696;4.396;2023-08-21T04:37:53;18.30;99.90
23100;DHT22;53791;50.696;4.396;2023-08-21T04:40:21;18.30;99.90
23100;DHT22;53791;50.696;4.396;2023-08-21T04:42:48;18.30;99.90
23100;DHT22;53791;50.696;4.396;2023-08-21T04:45:16;18.40;99.90
23100;DHT22;53791;50.696;4.396;2023-08-21T04:47:43;18.30;99.90
23100;DHT22;53791;50.696;4.396;2023-08-21T04:50:12;18.20;99.90
23100;DHT22;53791;50.696;4.396;2023-08-21T04:52:41;18.20;99.90
23100;DHT22;53791;50.696;4.396;2023-08-21T04:55:09;18.20;99.90
23100;DHT22;53791;50.696;4.396;2023-08-21T04:57:36;18.20;99.90
23100;DHT22;53791;50.696;4.396;2023-08-21T05:00:04;18.20;99.90
23100;DHT22;53791;50.696;4.396;2023-08-21T05:02:33;18.10;99.90
23100;DHT22;53791;50.696;4.396;2023-08-21T05:05:01;18.20;99.90
23100;DHT22;53791;50.696;4.396;2023-08-21T05:07:28;18.20;99.90
23100;DHT22;53791;50.696;4.396;2023-08-21T05:10:00;18.10;99.90
23100;DHT22;53791;50.696;4.396;2023-08-21T05:12:27;18.10;99.90
23100;DHT22;53791;50.696;4.396;2023-08-21T05:14:55;18.10;99.90
23100;DHT22;53791;50.696;4.396;2023-08-21T05:17:23;18.10;99.90
23100;DHT22;53791;50.696;4.396;2023-08-21T05:19:53;18.20;99.90
23100;DHT22;53791;50.696;4.396;2023-08-21T05:22:20;18.30;99.90
23100;DHT22;53791;50.696;4.396;2023-08-21T05:24:49;18.30;99.90
23100;DHT22;53791;50.696;4.396;2023-08-21T05:27:17;18.20;99.90
23100;DHT22;53791;50.696;4.396;2023-08-21T05:29:44;18.20;99.90
23100;DHT22;53791;50.696;4.396;2023-08-21T05:32:12;18.20;99.90
23100;DHT22;53791;50.696;4.396;2023-08-21T05:34:39;18.20;99.90
23100;DHT22;53791;50.696;4.396;2023-08-21T05:37:07;18.30;99.90
23100;DHT22;53791;50.696;4.396;2023-08-21T05:39:34;18.40;99.90
23100;DHT22;53791;50.696;4.396;2023-08-21T05:42:02;18.30;99.90
23100;DHT22;53791;50.696;4.396;2023-08-21T05:44:29;18.40;99.90
23100;DHT22;53791;50.696;4.396;2023-08-21T05:46:57;18.40;99.90
23100;DHT22;53791;50.696;4.396;2023-08-21T05:49:24;18.40;99.90
23100;DHT22;53791;50.696;4.396;2023-08-21T05:51:52;18.50;99.90
23100;DHT22;53791;50.696;4.396;2023-08-21T05:54:20;18.60;99.90
23100;DHT22;53791;50.696;4.396;2023-08-21T05:56:47;18.60;99.90
23100;DHT22;53791;50.696;4.396;2023-08-21T05:59:26;18.70;99.90
23100;DHT22;53791;50.696;4.396;2023-08-21T06:01:45;18.80;99.90
23100;DHT22;53791;50.696;4.396;2023-08-21T06:04:13;18.90;99.90
23100;DHT22;53791;50.696;4.396;2023-08-21T06:06:40;19.00;99.90
23100;DHT22;53791;50.696;4.396;2023-08-21T06:09:08;19.10;99.90
23100;DHT22;53791;50.696;4.396;2023-08-21T06:11:35;19.10;99.90
23100;DHT22;53791;50.696;4.396;2023-08-21T06:14:03;19.30;99.90
23100;DHT22;53791;50.696;4.396;2023-08-21T06:16:35;19.40;99.90
23100;DHT22;53791;50.696;4.396;2023-08-21T06:19:04;19.50;99.90
23100;DHT22;53791;50.696;4.396;2023-08-21T06:21:31;19.60;99.90
23100;DHT22;53791;50.696;4.396;2023-08-21T06:24:01;19.70;99.90
23100;DHT22;53791;50.696;4.396;2023-08-21T06:26:28;19.80;99.90
23100;DHT22;53791;50.696;4.396;2023-08-21T06:28:57;20.00;99.90
23100;DHT22;53791;50.696;4.396;2023-08-21T06:31:25;20.00;99.90
23100;DHT22;53791;50.696;4.396;2023-08-21T06:33:52;20.10;99.90
23100;DHT22;53791;50.696;4.396;2023-08-21T06:36:20;20.30;99.90
23100;DHT22;53791;50.696;4.396;2023-08-21T06:38:47;20.40;99.90
23100;DHT22;53791;50.696;4.396;2023-08-21T06:41:15;20.50;99.90
23100;DHT22;53791;50.696;4.396;2023-08-21T06:43:43;20.70;99.90
23100;DHT22;53791;50.696;4.396;2023-08-21T06:46:11;20.70;99.90
23100;DHT22;53791;50.696;4.396;2023-08-21T06:48:39;20.60;99.90
23100;DHT22;53791;50.696;4.396;2023-08-21T06:51:10;20.90;99.90
23100;DHT22;53791;50.696;4.396;2023-08-21T06:53:38;21.00;99.90
23100;DHT22;53791;50.696;4.396;2023-08-21T06:56:06;21.10;99.90
23100;DHT22;53791;50.696;4.396;2023-08-21T06:58:33;21.20;99.90
23100;DHT22;53791;50.696;4.396;2023-08-21T07:01:01;21.40;99.90
23100;DHT22;53791;50.696;4.396;2023-08-21T07:03:30;21.40;99.90
23100;DHT22;53791;50.696;4.396;2023-08-21T07:05:59;21.60;99.90
23100;DHT22;53791;50.696;4.396;2023-08-21T07:08:28;21.60;99.90
23100;DHT22;53791;50.696;4.396;2023-08-21T07:10:55;21.70;99.90
23100;DHT22;53791;50.696;4.396;2023-08-21T07:13:27;21.80;99.90
23100;DHT22;53791;50.696;4.396;2023-08-21T07:16:01;21.90;99.90
23100;DHT22;53791;50.696;4.396;2023-08-21T07:37:28;22.50;99.90
23100;DHT22;53791;50.696;4.396;2023-08-21T07:39:54;22.60;99.90
23100;DHT22;53791;50.696;4.396;2023-08-21T07:42:24;22.80;99.90
23100;DHT22;53791;50.696;4.396;2023-08-21T07:44:53;22.90;99.90
23100;DHT22;53791;50.696;4.396;2023-08-21T07:47:20;23.00;99.90
23100;DHT22;53791;50.696;4.396;2023-08-21T07:49:48;23.10;99.90
23100;DHT22;53791;50.696;4.396;2023-08-21T07:52:17;23.10;99.90
23100;DHT22;53791;50.696;4.396;2023-08-21T07:54:57;23.10;99.90
23100;DHT22;53791;50.696;4.396;2023-08-21T07:57:27;23.20;99.90
23100;DHT22;53791;50.696;4.396;2023-08-21T08:00:11;23.30;99.90
23100;DHT22;53791;50.696;4.396;2023-08-21T08:02:39;23.50;99.90
23100;DHT22;53791;50.696;4.396;2023-08-21T08:05:08;23.50;99.90
23100;DHT22;53791;50.696;4.396;2023-08-21T08:07:35;23.60;99.90
23100;DHT22;53791;50.696;4.396;2023-08-21T08:10:04;23.80;99.90
23100;DHT22;53791;50.696;4.396;2023-08-21T08:12:40;23.90;99.90
23100;DHT22;53791;50.696;4.396;2023-08-21T08:15:01;24.00;99.90
23100;DHT22;53791;50.696;4.396;2023-08-21T08:17:30;23.90;99.90
23100;DHT22;53791;50.696;4.396;2023-08-21T08:19:58;24.10;99.90
23100;DHT22;53791;50.696;4.396;2023-08-21T08:22:25;24.10;99.90
23100;DHT22;53791;50.696;4.396;2023-08-21T08:24:55;24.20;99.90
23100;DHT22;53791;50.696;4.396;2023-08-21T08:27:23;24.40;99.90
23100;DHT22;53791;50.696;4.396;2023-08-21T08:29:50;24.40;99.90
23100;DHT22;53791;50.696;4.396;2023-08-21T08:32:22;24.50;99.90
23100;DHT22;53791;50.696;4.396;2023-08-21T08:34:48;24.60;99.90
23100;DHT22;53791;50.696;4.396;2023-08-21T08:37:16;24.70;99.90
23100;DHT22;53791;50.696;4.396;2023-08-21T08:39:50;24.80;99.90
23100;DHT22;53791;50.696;4.396;2023-08-21T08:42:17;24.80;99.90
23100;DHT22;53791;50.696;4.396;2023-08-21T08:44:45;24.80;99.90
23100;DHT22;53791;50.696;4.396;2023-08-21T08:47:14;24.90;99.90
23100;DHT22;53791;50.696;4.396;2023-08-21T08:49:47;25.10;99.90
23100;DHT22;53791;50.696;4.396;2023-08-21T08:52:19;25.10;99.90
23100;DHT22;53791;50.696;4.396;2023-08-21T08:54:46;25.10;99.90
23100;DHT22;53791;50.696;4.396;2023-08-21T08:57:16;25.20;99.90
23100;DHT22;53791;50.696;4.396;2023-08-21T08:59:43;25.30;99.90
23100;DHT22;53791;50.696;4.396;2023-08-21T09:02:11;25.30;99.90
23100;DHT22;53791;50.696;4.396;2023-08-21T09:04:38;25.30;99.90
23100;DHT22;53791;50.696;4.396;2023-08-21T09:07:12;25.40;99.90
23100;DHT22;53791;50.696;4.396;2023-08-21T09:09:44;25.60;99.90
23100;DHT22;53791;50.696;4.396;2023-08-21T09:12:12;25.50;99.90
23100;DHT22;53791;50.696;4.396;2023-08-21T09:14:46;25.50;99.90
23100;DHT22;53791;50.696;4.396;2023-08-21T09:17:16;25.60;99.90
23100;DHT22;53791;50.696;4.396;2023-08-21T09:19:44;25.70;99.90
23100;DHT22;53791;50.696;4.396;2023-08-21T09:22:13;25.80;99.90
23100;DHT22;53791;50.696;4.396;2023-08-21T09:25:04;25.90;99.90
23100;DHT22;53791;50.696;4.396;2023-08-21T09:27:18;26.00;99.90
23100;DHT22;53791;50.696;4.396;2023-08-21T09:29:46;25.90;99.90
23100;DHT22;53791;50.696;4.396;2023-08-21T09:32:14;25.90;99.90
23100;DHT22;53791;50.696;4.396;2023-08-21T09:34:42;26.10;99.90
23100;DHT22;53791;50.696;4.396;2023-08-21T09:37:11;26.30;99.90
23100;DHT22;53791;50.696;4.396;2023-08-21T09:39:39;26.30;99.90
23100;DHT22;53791;50.696;4.396;2023-08-21T09:42:08;26.20;99.90
23100;DHT22;53791;50.696;4.396;2023-08-21T09:44:38;26.10;99.90
23100;DHT22;53791;50.696;4.396;2023-08-21T09:47:08;26.00;99.90
23100;DHT22;53791;50.696;4.396;2023-08-21T09:49:37;26.00;99.90
23100;DHT22;53791;50.696;4.396;2023-08-21T09:52:07;26.00;99.90
23100;DHT22;53791;50.696;4.396;2023-08-21T09:54:38;26.20;99.90
23100;DHT22;53791;50.696;4.396;2023-08-21T09:57:09;26.40;99.90
23100;DHT22;53791;50.696;4.396;2023-08-21T09:59:37;26.50;99.90
23100;DHT22;53791;50.696;4.396;2023-08-21T10:02:07;26.50;99.90
23100;DHT22;53791;50.696;4.396;2023-08-21T10:04:37;26.50;99.90
23100;DHT22;53791;50.696;4.396;2023-08-21T10:07:09;26.60;99.90
23100;DHT22;53791;50.696;4.396;2023-08-21T10:09:39;26.70;99.90
23100;DHT22;53791;50.696;4.396;2023-08-21T10:12:09;27.00;99.90
23100;DHT22;53791;50.696;4.396;2023-08-21T10:14:42;27.10;99.90
23100;DHT22;53791;50.696;4.396;2023-08-21T10:17:10;27.20;99.90
23100;DHT22;53791;50.696;4.396;2023-08-21T10:19:38;27.20;99.90
23100;DHT22;53791;50.696;4.396;2023-08-21T10:22:05;27.10;99.90
23100;DHT22;53791;50.696;4.396;2023-08-21T10:24:35;27.10;99.90
23100;DHT22;53791;50.696;4.396;2023-08-21T10:27:06;27.20;99.90
23100;DHT22;53791;50.696;4.396;2023-08-21T10:29:34;27.30;99.90
23100;DHT22;53791;50.696;4.396;2023-08-21T10:32:05;27.60;99.90
23100;DHT22;53791;50.696;4.396;2023-08-21T10:34:35;27.70;99.90
23100;DHT22;53791;50.696;4.396;2023-08-21T10:37:08;27.60;99.90
23100;DHT22;53791;50.696;4.396;2023-08-21T10:39:53;27.60;99.90
23100;DHT22;53791;50.696;4.396;2023-08-21T10:42:11;27.50;99.90
23100;DHT22;53791;50.696;4.396;2023-08-21T10:44:46;27.40;99.90
23100;DHT22;53791;50.696;4.396;2023-08-21T10:47:31;27.20;99.90
23100;DHT22;53791;50.696;4.396;2023-08-21T10:52:42;27.10;99.90
23100;DHT22;53791;50.696;4.396;2023-08-21T10:55:08;27.00;99.90
23100;DHT22;53791;50.696;4.396;2023-08-21T10:57:36;27.10;99.90
23100;DHT22;53791;50.696;4.396;2023-08-21T11:00:11;27.10;99.90
23100;DHT22;53791;50.696;4.396;2023-08-21T11:02:41;27.00;99.90
23100;DHT22;53791;50.696;4.396;2023-08-21T11:05:09;27.10;99.90
23100;DHT22;53791;50.696;4.396;2023-08-21T11:07:44;27.10;99.90
23100;DHT22;53791;50.696;4.396;2023-08-21T11:10:16;27.20;99.90
23100;DHT22;53791;50.696;4.396;2023-08-21T11:12:55;27.20;99.90
23100;DHT22;53791;50.696;4.396;2023-08-21T11:15:24;27.30;99.90
23100;DHT22;53791;50.696;4.396;2023-08-21T11:17:57;27.30;99.90
23100;DHT22;53791;50.696;4.396;2023-08-21T11:20:29;27.30;99.90
23100;DHT22;53791;50.696;4.396;2023-08-21T11:23:02;27.20;99.90
23100;DHT22;53791;50.696;4.396;2023-08-21T11:25:31;27.30;99.90
23100;DHT22;53791;50.696;4.396;2023-08-21T11:28:00;27.30;99.90
23100;DHT22;53791;50.696;4.396;2023-08-21T11:30:30;27.20;99.90
23100;DHT22;53791;50.696;4.396;2023-08-21T11:33:12;27.20;99.90
23100;DHT22;53791;50.696;4.396;2023-08-21T11:35:40;27.10;99.90
23100;DHT22;53791;50.696;4.396;2023-08-21T11:38:21;27.00;99.90
23100;DHT22;53791;50.696;4.396;2023-08-21T11:40:54;27.00;99.90
23100;DHT22;53791;50.696;4.396;2023-08-21T11:43:33;26.90;99.90
23100;DHT22;53791;50.696;4.396;2023-08-21T11:45:53;26.70;99.90
23100;DHT22;53791;50.696;4.396;2023-08-21T11:48:21;26.60;99.90
23100;DHT22;53791;50.696;4.396;2023-08-21T11:50:49;26.70;99.90
23100;DHT22;53791;50.696;4.396;2023-08-21T11:53:32;26.80;99.90
23100;DHT22;53791;50.696;4.396;2023-08-21T11:55:59;26.90;99.90
23100;DHT22;53791;50.696;4.396;2023-08-21T11:58:27;26.50;99.90
23100;DHT22;53791;50.696;4.396;2023-08-21T12:01:04;26.40;99.90
23100;DHT22;53791;50.696;4.396;2023-08-21T12:03:26;26.40;99.90
23100;DHT22;53791;50.696;4.396;2023-08-21T12:05:55;26.40;99.90
23100;DHT22;53791;50.696;4.396;2023-08-21T12:08:22;26.40;99.90
23100;DHT22;53791;50.696;4.396;2023-08-21T12:10:53;26.50;99.90
23100;DHT22;53791;50.696;4.396;2023-08-21T12:13:20;26.50;99.90
23100;DHT22;53791;50.696;4.396;2023-08-21T12:15:48;26.70;99.90
23100;DHT22;53791;50.696;4.396;2023-08-21T12:18:15;26.70;99.90
23100;DHT22;53791;50.696;4.396;2023-08-21T12:20:43;26.70;99.90
23100;DHT22;53791;50.696;4.396;2023-08-21T12:23:10;26.60;99.90
23100;DHT22;53791;50.696;4.396;2023-08-21T12:25:38;26.50;99.90
23100;DHT22;53791;50.696;4.396;2023-08-21T12:28:06;26.30;99.90
23100;DHT22;53791;50.696;4.396;2023-08-21T12:30:33;26.40;99.90
23100;DHT22;53791;50.696;4.396;2023-08-21T12:33:01;26.50;99.90
23100;DHT22;53791;50.696;4.396;2023-08-21T12:35:29;26.60;99.90
23100;DHT22;53791;50.696;4.396;2023-08-21T12:37:57;26.60;99.90
23100;DHT22;53791;50.696;4.396;2023-08-21T12:40:27;26.50;99.90
23100;DHT22;53791;50.696;4.396;2023-08-21T12:42:54;26.40;99.90
23100;DHT22;53791;50.696;4.396;2023-08-21T12:45:22;26.30;99.90
23100;DHT22;53791;50.696;4.396;2023-08-21T12:47:50;26.20;99.90
23100;DHT22;53791;50.696;4.396;2023-08-21T12:50:18;26.10;99.90
23100;DHT22;53791;50.696;4.396;2023-08-21T12:52:45;26.20;99.90
23100;DHT22;53791;50.696;4.396;2023-08-21T12:55:13;26.20;99.90
23100;DHT22;53791;50.696;4.396;2023-08-21T12:57:41;26.40;99.90
23100;DHT22;53791;50.696;4.396;2023-08-21T13:00:08;26.70;99.90
23100;DHT22;53791;50.696;4.396;2023-08-21T13:02:37;27.00;99.90
23100;DHT22;53791;50.696;4.396;2023-08-21T13:05:10;27.30;99.90
23100;DHT22;53791;50.696;4.396;2023-08-21T13:07:34;27.60;99.90
23100;DHT22;53791;50.696;4.396;2023-08-21T13:10:02;27.90;99.90
23100;DHT22;53791;50.696;4.396;2023-08-21T13:12:29;28.20;99.90
23100;DHT22;53791;50.696;4.396;2023-08-21T13:14:57;28.40;99.90
23100;DHT22;53791;50.696;4.396;2023-08-21T13:17:25;28.50;99.90
23100;DHT22;53791;50.696;4.396;2023-08-21T13:19:52;28.70;99.90
23100;DHT22;53791;50.696;4.396;2023-08-21T13:22:20;28.90;99.90
23100;DHT22;53791;50.696;4.396;2023-08-21T13:24:47;29.10;99.90
23100;DHT22;53791;50.696;4.396;2023-08-21T13:27:15;29.30;99.90
23100;DHT22;53791;50.696;4.396;2023-08-21T13:29:42;29.50;99.90
23100;DHT22;53791;50.696;4.396;2023-08-21T13:32:10;29.50;99.90
23100;DHT22;53791;50.696;4.396;2023-08-21T13:34:39;29.60;99.90
23100;DHT22;53791;50.696;4.396;2023-08-21T13:37:07;29.70;99.90
23100;DHT22;53791;50.696;4.396;2023-08-21T13:39:34;29.70;99.90
23100;DHT22;53791;50.696;4.396;2023-08-21T13:42:02;29.80;99.90
23100;DHT22;53791;50.696;4.396;2023-08-21T13:44:31;30.00;99.90
23100;DHT22;53791;50.696;4.396;2023-08-21T13:46:59;29.90;99.90
23100;DHT22;53791;50.696;4.396;2023-08-21T13:49:27;29.90;99.90
23100;DHT22;53791;50.696;4.396;2023-08-21T13:51:54;29.90;99.90
23100;DHT22;53791;50.696;4.396;2023-08-21T13:54:24;29.70;99.90
23100;DHT22;53791;50.696;4.396;2023-08-21T13:56:51;29.80;99.90
23100;DHT22;53791;50.696;4.396;2023-08-21T13:59:19;30.00;99.90
23100;DHT22;53791;50.696;4.396;2023-08-21T14:01:47;29.90;99.90
23100;DHT22;53791;50.696;4.396;2023-08-21T14:04:14;29.70;99.90
23100;DHT22;53791;50.696;4.396;2023-08-21T14:06:42;29.40;99.90
23100;DHT22;53791;50.696;4.396;2023-08-21T14:09:09;29.10;99.90
23100;DHT22;53791;50.696;4.396;2023-08-21T14:11:37;29.00;99.90
23100;DHT22;53791;50.696;4.396;2023-08-21T14:14:04;29.00;99.90
23100;DHT22;53791;50.696;4.396;2023-08-21T14:16:32;28.90;99.90
23100;DHT22;53791;50.696;4.396;2023-08-21T14:18:59;28.90;99.90
23100;DHT22;53791;50.696;4.396;2023-08-21T14:21:27;29.00;99.90
23100;DHT22;53791;50.696;4.396;2023-08-21T14:23:54;29.10;99.90
23100;DHT22;53791;50.696;4.396;2023-08-21T14:26:22;29.20;99.90
23100;DHT22;53791;50.696;4.396;2023-08-21T14:28:49;29.30;99.90
23100;DHT22;53791;50.696;4.396;2023-08-21T14:31:17;29.30;99.90
23100;DHT22;53791;50.696;4.396;2023-08-21T14:33:45;29.30;99.90
23100;DHT22;53791;50.696;4.396;2023-08-21T14:36:12;29.30;99.90
23100;DHT22;53791;50.696;4.396;2023-08-21T14:38:40;29.30;99.90
23100;DHT22;53791;50.696;4.396;2023-08-21T14:41:07;29.40;99.90
23100;DHT22;53791;50.696;4.396;2023-08-21T14:43:35;29.30;99.90
23100;DHT22;53791;50.696;4.396;2023-08-21T14:46:02;29.30;99.90
23100;DHT22;53791;50.696;4.396;2023-08-21T14:48:31;29.20;99.90
23100;DHT22;53791;50.696;4.396;2023-08-21T14:50:59;29.20;99.90
23100;DHT22;53791;50.696;4.396;2023-08-21T14:53:26;29.40;99.90
23100;DHT22;53791;50.696;4.396;2023-08-21T14:55:54;29.60;99.90
23100;DHT22;53791;50.696;4.396;2023-08-21T14:58:22;29.80;99.90
23100;DHT22;53791;50.696;4.396;2023-08-21T15:00:53;29.80;99.90
23100;DHT22;53791;50.696;4.396;2023-08-21T15:03:19;29.90;99.90
23100;DHT22;53791;50.696;4.396;2023-08-21T15:05:48;29.90;99.90
23100;DHT22;53791;50.696;4.396;2023-08-21T15:08:15;30.00;99.90
23100;DHT22;53791;50.696;4.396;2023-08-21T15:10:43;29.80;99.90
23100;DHT22;53791;50.696;4.396;2023-08-21T15:13:10;29.50;99.90
23100;DHT22;53791;50.696;4.396;2023-08-21T15:15:38;29.50;99.90
23100;DHT22;53791;50.696;4.396;2023-08-21T15:18:05;29.60;99.90
23100;DHT22;53791;50.696;4.396;2023-08-21T15:20:33;29.70;99.90
23100;DHT22;53791;50.696;4.396;2023-08-21T15:23:00;29.70;99.90
23100;DHT22;53791;50.696;4.396;2023-08-21T15:25:28;29.60;99.90
23100;DHT22;53791;50.696;4.396;2023-08-21T15:27:55;29.50;99.90
23100;DHT22;53791;50.696;4.396;2023-08-21T15:30:23;29.60;99.90
23100;DHT22;53791;50.696;4.396;2023-08-21T15:32:50;29.60;99.90
23100;DHT22;53791;50.696;4.396;2023-08-21T15:35:18;29.60;99.90
23100;DHT22;53791;50.696;4.396;2023-08-21T15:37:45;29.60;99.90
23100;DHT22;53791;50.696;4.396;2023-08-21T15:40:13;29.50;99.90
23100;DHT22;53791;50.696;4.396;2023-08-21T15:42:40;29.60;99.90
23100;DHT22;53791;50.696;4.396;2023-08-21T15:45:09;29.70;99.90
23100;DHT22;53791;50.696;4.396;2023-08-21T15:47:38;29.80;99.90
23100;DHT22;53791;50.696;4.396;2023-08-21T15:50:06;29.70;99.90
23100;DHT22;53791;50.696;4.396;2023-08-21T15:52:34;29.80;99.90
23100;DHT22;53791;50.696;4.396;2023-08-21T15:55:02;29.70;99.90
23100;DHT22;53791;50.696;4.396;2023-08-21T15:57:29;29.60;99.90
23100;DHT22;53791;50.696;4.396;2023-08-21T16:00:00;29.50;99.90
23100;DHT22;53791;50.696;4.396;2023-08-21T16:02:28;29.50;99.90